Time;durP1;ratioP1;P1;durP2;ratioP2;P2;SDS_P1;SDS_P2;PMS_P1;PMS_P2;Temp;Humidity;BMP_temperature;BMP_pressure;BME280_temperature;BME280_humidity;BME280_pressure;Samples;Min_cycle;Max_cycle;Signal;HPM_P1;HPM_P2
2021/04/04 00:01:08;;;;;;;11.07;7.90;;;;;;;;;;5079472;28;20706;-68
2021/04/04 00:03:34;;;;;;;11.37;7.67;;;;;;;;;;5073502;28;20211;-67
2021/04/04 00:06:00;;;;;;;12.43;7.97;;;;;;;;;;5085742;28;20209;-67
2021/04/04 00:08:26;;;;;;;9.33;7.20;;;;;;;;;;5072113;28;20263;-68
2021/04/04 00:10:53;;;;;;;10.87;7.50;;;;;;;;;;5084370;28;20240;-69
2021/04/04 00:13:19;;;;;;;10.23;7.73;;;;;;;;;;5091979;28;20192;-71
2021/04/04 00:15:45;;;;;;;11.00;7.83;;;;;;;;;;5080674;28;20213;-70
2021/04/04 00:18:11;;;;;;;11.10;8.00;;;;;;;;;;5084068;28;20255;-69
2021/04/04 00:20:37;;;;;;;15.73;7.37;;;;;;;;;;5082469;28;20184;-69
2021/04/04 00:23:03;;;;;;;12.23;8.40;;;;;;;;;;5078061;28;20188;-69
2021/04/04 00:25:30;;;;;;;15.10;8.47;;;;;;;;;;5074290;28;20696;-68
2021/04/04 00:27:56;;;;;;;9.27;8.20;;;;;;;;;;5075946;28;20214;-68
2021/04/04 00:30:23;;;;;;;12.77;7.57;;;;;;;;;;5076382;28;20251;-68
2021/04/04 00:32:49;;;;;;;11.90;7.87;;;;;;;;;;5075140;28;20183;-68
2021/04/04 00:35:17;;;;;;;11.77;6.90;;;;;;;;;;5079306;28;20220;-68
2021/04/04 00:37:43;;;;;;;13.43;6.87;;;;;;;;;;5078829;28;20207;-69
2021/04/04 00:40:19;;;;;;;10.83;7.10;;;;;;;;;;5073661;28;20186;-70
2021/04/04 00:42:45;;;;;;;11.17;6.23;;;;;;;;;;5084132;28;20189;-70
2021/04/04 00:45:13;;;;;;;11.27;6.20;;;;;;;;;;5077290;28;20211;-70
2021/04/04 00:47:39;;;;;;;10.90;5.67;;;;;;;;;;5079575;28;20188;-68
2021/04/04 00:50:06;;;;;;;8.67;5.93;;;;;;;;;;5081371;28;20218;-71
2021/04/04 00:52:32;;;;;;;9.20;6.10;;;;;;;;;;5079333;28;20190;-69
2021/04/04 00:54:59;;;;;;;10.00;5.60;;;;;;;;;;5081975;28;20210;-68
2021/04/04 00:57:25;;;;;;;13.50;5.60;;;;;;;;;;5074762;28;20241;-68
2021/04/04 00:59:52;;;;;;;11.50;6.20;;;;;;;;;;5075666;28;20190;-68
2021/04/04 01:02:18;;;;;;;8.40;6.07;;;;;;;;;;5078191;28;20675;-69
2021/04/04 01:04:46;;;;;;;10.73;5.87;;;;;;;;;;5079148;28;20796;-70
2021/04/04 01:07:12;;;;;;;9.90;6.27;;;;;;;;;;5080857;28;20182;-68
2021/04/04 01:09:38;;;;;;;9.53;7.10;;;;;;;;;;5084400;28;20193;-68
2021/04/04 01:12:19;;;;;;;8.17;6.37;;;;;;;;;;5080714;28;20195;-68
2021/04/04 01:14:50;;;;;;;11.80;7.10;;;;;;;;;;5077566;28;20208;-69
2021/04/04 01:17:19;;;;;;;10.70;6.97;;;;;;;;;;5081732;28;20215;-69
2021/04/04 01:19:54;;;;;;;9.03;6.43;;;;;;;;;;5085227;28;20191;-67
2021/04/04 01:22:39;;;;;;;9.37;6.50;;;;;;;;;;5078898;28;20228;-67
2021/04/04 01:25:05;;;;;;;11.30;7.03;;;;;;;;;;5080370;28;20209;-68
2021/04/04 01:27:38;;;;;;;8.60;6.87;;;;;;;;;;5080288;28;20187;-68
2021/04/04 01:30:06;;;;;;;11.27;6.87;;;;;;;;;;5074518;28;20211;-69
2021/04/04 01:32:34;;;;;;;10.77;6.80;;;;;;;;;;5072837;28;20638;-70
2021/04/04 01:35:01;;;;;;;10.37;7.17;;;;;;;;;;5079750;28;20704;-68
2021/04/04 01:37:27;;;;;;;12.33;7.63;;;;;;;;;;5078442;28;20214;-67
2021/04/04 01:39:56;;;;;;;11.20;7.10;;;;;;;;;;5079330;28;20190;-67
2021/04/04 01:42:23;;;;;;;12.73;7.10;;;;;;;;;;5077691;28;20608;-69
2021/04/04 01:44:50;;;;;;;9.17;6.40;;;;;;;;;;5080200;28;20252;-69
2021/04/04 01:47:16;;;;;;;14.53;7.60;;;;;;;;;;5081890;28;20179;-68
2021/04/04 01:49:46;;;;;;;14.53;7.03;;;;;;;;;;5079960;28;20601;-69
2021/04/04 01:52:13;;;;;;;8.47;6.47;;;;;;;;;;5078828;28;20200;-70
2021/04/04 01:54:39;;;;;;;11.57;7.17;;;;;;;;;;5079380;28;20213;-67
2021/04/04 01:57:05;;;;;;;11.40;7.13;;;;;;;;;;5078925;28;20700;-67
2021/04/04 01:59:32;;;;;;;14.27;7.20;;;;;;;;;;5076023;28;20713;-68
2021/04/04 02:01:59;;;;;;;10.33;6.87;;;;;;;;;;5081616;28;20350;-69
2021/04/04 02:04:26;;;;;;;13.10;6.80;;;;;;;;;;5078814;28;20664;-67
2021/04/04 02:06:52;;;;;;;11.27;6.50;;;;;;;;;;5074872;28;20791;-66
2021/04/04 02:09:18;;;;;;;10.77;6.40;;;;;;;;;;5079145;28;20277;-68
2021/04/04 02:11:45;;;;;;;10.80;6.80;;;;;;;;;;5071285;28;20744;-69
2021/04/04 02:14:13;;;;;;;9.90;6.50;;;;;;;;;;5078548;28;20182;-69
2021/04/04 02:16:41;;;;;;;13.17;6.80;;;;;;;;;;5080603;28;20205;-68
2021/04/04 02:19:12;;;;;;;11.57;6.87;;;;;;;;;;5079606;28;20189;-68
2021/04/04 02:21:38;;;;;;;9.23;7.07;;;;;;;;;;5073251;28;20194;-69
2021/04/04 02:24:07;;;;;;;10.07;7.03;;;;;;;;;;5081191;28;20216;-68
2021/04/04 02:26:33;;;;;;;7.20;6.10;;;;;;;;;;5078259;28;20209;-68
2021/04/04 02:29:00;;;;;;;8.07;6.10;;;;;;;;;;5082047;28;20186;-68
2021/04/04 02:31:27;;;;;;;13.40;6.97;;;;;;;;;;5081538;28;20201;-67
2021/04/04 02:33:55;;;;;;;9.80;6.03;;;;;;;;;;5079686;28;20185;-70
2021/04/04 02:36:22;;;;;;;8.80;6.30;;;;;;;;;;5077110;28;20225;-69
2021/04/04 02:38:51;;;;;;;10.60;6.33;;;;;;;;;;5079991;28;20265;-68
2021/04/04 02:41:18;;;;;;;8.83;6.07;;;;;;;;;;5079223;28;20185;-69
2021/04/04 02:43:44;;;;;;;8.87;5.93;;;;;;;;;;5083829;28;20189;-69
2021/04/04 02:46:14;;;;;;;9.73;5.63;;;;;;;;;;5079676;28;20330;-68
2021/04/04 02:48:45;;;;;;;12.27;5.70;;;;;;;;;;5078513;28;20190;-69
2021/04/04 02:51:13;;;;;;;9.97;5.63;;;;;;;;;;5072940;28;20209;-68
2021/04/04 02:53:43;;;;;;;8.30;5.10;;;;;;;;;;5081374;28;20182;-68
2021/04/04 02:56:09;;;;;;;8.33;5.73;;;;;;;;;;5086172;28;20235;-67
2021/04/04 02:58:37;;;;;;;12.00;6.27;;;;;;;;;;5077235;28;20704;-67
2021/04/04 03:01:04;;;;;;;8.30;5.20;;;;;;;;;;5081732;28;20254;-67
2021/04/04 03:03:31;;;;;;;7.83;5.10;;;;;;;;;;5074097;28;20562;-68
2021/04/04 03:05:58;;;;;;;6.73;4.73;;;;;;;;;;5081582;28;20216;-69
2021/04/04 03:08:25;;;;;;;7.77;5.37;;;;;;;;;;5081792;28;20192;-66
2021/04/04 03:10:52;;;;;;;7.93;5.50;;;;;;;;;;5080558;28;20198;-69
2021/04/04 03:13:23;;;;;;;7.23;4.90;;;;;;;;;;5081070;28;20198;-69
2021/04/04 03:15:49;;;;;;;7.60;5.20;;;;;;;;;;5078615;28;20275;-68
2021/04/04 03:18:17;;;;;;;7.67;5.07;;;;;;;;;;5083147;28;20248;-68
2021/04/04 03:20:44;;;;;;;9.97;5.63;;;;;;;;;;5086095;28;20190;-67
2021/04/04 03:23:11;;;;;;;9.37;5.70;;;;;;;;;;5080009;28;20248;-70
2021/04/04 03:25:37;;;;;;;8.97;6.00;;;;;;;;;;5081803;28;20274;-66
2021/04/04 03:28:03;;;;;;;6.33;5.47;;;;;;;;;;5078840;28;20211;-70
2021/04/04 03:30:42;;;;;;;10.37;5.77;;;;;;;;;;5081149;28;20250;-70
2021/04/04 03:33:08;;;;;;;9.13;5.33;;;;;;;;;;5079525;28;20186;-70
2021/04/04 03:35:35;;;;;;;9.13;5.87;;;;;;;;;;5081626;28;20216;-68
2021/04/04 03:38:04;;;;;;;9.90;6.30;;;;;;;;;;5078483;28;20209;-68
2021/04/04 03:40:30;;;;;;;12.70;6.03;;;;;;;;;;5078434;28;20190;-67
2021/04/04 03:42:58;;;;;;;10.23;5.57;;;;;;;;;;5079002;28;20183;-67
2021/04/04 03:45:25;;;;;;;11.93;6.00;;;;;;;;;;5076838;28;20668;-69
2021/04/04 03:47:51;;;;;;;9.70;5.53;;;;;;;;;;5075960;28;20183;-69
2021/04/04 03:50:18;;;;;;;10.53;5.53;;;;;;;;;;5080837;28;20188;-68
2021/04/04 03:52:46;;;;;;;13.80;5.47;;;;;;;;;;5081911;28;20189;-70
2021/04/04 03:55:13;;;;;;;11.53;5.93;;;;;;;;;;5078618;28;20219;-69
2021/04/04 03:57:39;;;;;;;11.30;5.87;;;;;;;;;;5079742;28;20208;-68
2021/04/04 04:00:13;;;;;;;11.27;6.00;;;;;;;;;;5081558;28;20179;-69
2021/04/04 04:02:41;;;;;;;13.03;6.23;;;;;;;;;;5102723;28;20193;-71
2021/04/04 04:05:08;;;;;;;13.37;6.33;;;;;;;;;;5092011;28;20247;-71
2021/04/04 04:07:34;;;;;;;8.57;6.10;;;;;;;;;;5075371;28;20252;-69
2021/04/04 04:10:03;;;;;;;10.33;6.10;;;;;;;;;;5084713;28;20216;-69
2021/04/04 04:12:30;;;;;;;11.33;6.20;;;;;;;;;;5083213;28;20193;-70
2021/04/04 04:14:57;;;;;;;9.33;6.53;;;;;;;;;;5077874;28;20198;-69
2021/04/04 04:17:23;;;;;;;12.77;7.13;;;;;;;;;;5079437;28;20206;-69
2021/04/04 04:19:50;;;;;;;9.70;7.50;;;;;;;;;;5079799;28;20181;-68
2021/04/04 04:22:16;;;;;;;10.80;7.43;;;;;;;;;;5077967;28;20671;-69
2021/04/04 04:24:42;;;;;;;9.17;7.47;;;;;;;;;;5081878;28;20194;-68
2021/04/04 04:27:10;;;;;;;10.73;7.80;;;;;;;;;;5082551;28;20218;-67
2021/04/04 04:29:37;;;;;;;12.50;8.13;;;;;;;;;;5078673;28;20203;-68
2021/04/04 04:32:04;;;;;;;15.47;8.57;;;;;;;;;;5076985;28;20181;-68
2021/04/04 04:34:31;;;;;;;10.97;7.63;;;;;;;;;;5077846;28;20209;-70
2021/04/04 04:36:57;;;;;;;11.60;7.93;;;;;;;;;;5083806;28;20210;-68
2021/04/04 04:39:23;;;;;;;11.77;8.17;;;;;;;;;;5076557;28;20219;-68
2021/04/04 04:41:51;;;;;;;12.47;8.00;;;;;;;;;;5078885;28;20189;-69
2021/04/04 04:44:22;;;;;;;11.77;8.23;;;;;;;;;;5082024;28;20224;-68
2021/04/04 04:46:49;;;;;;;13.93;7.83;;;;;;;;;;5076693;28;20258;-69
2021/04/04 04:49:15;;;;;;;12.43;7.47;;;;;;;;;;5079463;28;20208;-69
2021/04/04 04:51:41;;;;;;;13.43;7.50;;;;;;;;;;5076087;28;20244;-68
2021/04/04 04:54:08;;;;;;;8.70;7.40;;;;;;;;;;5076664;28;20179;-68
2021/04/04 04:56:38;;;;;;;10.97;7.43;;;;;;;;;;5070676;28;20295;-68
2021/04/04 04:59:06;;;;;;;11.43;7.33;;;;;;;;;;5073437;28;20217;-68
2021/04/04 05:01:35;;;;;;;11.87;7.57;;;;;;;;;;5078318;28;20185;-69
2021/04/04 05:04:01;;;;;;;11.67;7.40;;;;;;;;;;5076639;28;20186;-68
2021/04/04 05:06:27;;;;;;;11.80;7.27;;;;;;;;;;5080164;28;20205;-67
2021/04/04 05:08:54;;;;;;;12.57;7.33;;;;;;;;;;5083608;28;20222;-68
2021/04/04 05:11:21;;;;;;;14.93;7.53;;;;;;;;;;5082974;28;20179;-68
2021/04/04 05:13:47;;;;;;;12.00;7.67;;;;;;;;;;5081052;28;20263;-70
2021/04/04 05:16:16;;;;;;;15.17;7.13;;;;;;;;;;5080917;28;20266;-71
2021/04/04 05:18:47;;;;;;;8.90;6.87;;;;;;;;;;5073800;28;20181;-68
2021/04/04 05:21:13;;;;;;;10.03;6.53;;;;;;;;;;5076309;28;20365;-69
2021/04/04 05:23:39;;;;;;;10.47;6.90;;;;;;;;;;5076420;28;20238;-68
2021/04/04 05:26:06;;;;;;;11.03;6.33;;;;;;;;;;5071702;28;20222;-68
2021/04/04 05:28:33;;;;;;;8.40;6.70;;;;;;;;;;5087759;28;20188;-68
2021/04/04 05:31:05;;;;;;;11.83;7.97;;;;;;;;;;5080045;28;20658;-67
2021/04/04 05:33:31;;;;;;;14.63;9.37;;;;;;;;;;5079971;28;20182;-68
2021/04/04 05:36:01;;;;;;;13.87;10.33;;;;;;;;;;5072768;28;20198;-70
2021/04/04 05:38:27;;;;;;;14.27;10.77;;;;;;;;;;5074973;28;20184;-69
2021/04/04 05:40:56;;;;;;;16.60;10.00;;;;;;;;;;5071953;28;20181;-70
2021/04/04 05:43:25;;;;;;;12.67;8.83;;;;;;;;;;5076985;28;20190;-70
2021/04/04 05:46:15;;;;;;;14.37;8.20;;;;;;;;;;5074253;28;20778;-70
2021/04/04 05:48:59;;;;;;;12.87;7.93;;;;;;;;;;5070453;28;20705;-67
2021/04/04 05:51:25;;;;;;;14.70;9.07;;;;;;;;;;5085086;28;20712;-68
2021/04/04 05:54:01;;;;;;;13.13;9.67;;;;;;;;;;5077062;28;20259;-70
2021/04/04 05:56:28;;;;;;;15.87;9.43;;;;;;;;;;5075784;28;20614;-69
2021/04/04 05:59:24;;;;;;;16.03;10.00;;;;;;;;;;5072600;28;20179;-69
2021/04/04 06:01:54;;;;;;;17.63;9.00;;;;;;;;;;5056778;28;21081;-69
2021/04/04 06:04:35;;;;;;;13.57;8.83;;;;;;;;;;5066403;28;20192;-66
2021/04/04 06:07:15;;;;;;;12.57;8.37;;;;;;;;;;5060187;28;20252;-69
2021/04/04 06:09:41;;;;;;;11.90;8.73;;;;;;;;;;5067490;28;20184;-67
2021/04/04 06:12:13;;;;;;;13.17;8.73;;;;;;;;;;5060895;28;20758;-68
2021/04/04 06:14:59;;;;;;;10.67;8.80;;;;;;;;;;5059805;28;20609;-68
2021/04/04 06:17:31;;;;;;;12.37;9.10;;;;;;;;;;5053210;28;20250;-67
2021/04/04 06:20:13;;;;;;;13.77;9.77;;;;;;;;;;5053340;28;20207;-70
2021/04/04 06:22:49;;;;;;;16.47;9.43;;;;;;;;;;5051686;28;20175;-68
2021/04/04 06:25:22;;;;;;;10.60;8.07;;;;;;;;;;5059612;28;20261;-67
2021/04/04 06:27:52;;;;;;;17.50;8.37;;;;;;;;;;5065287;28;20682;-67
2021/04/04 06:33:27;;;;;;;10.17;8.00;;;;;;;;;;5061733;28;20243;-71
2021/04/04 06:36:02;;;;;;;12.37;7.93;;;;;;;;;;5053860;28;20279;-69
2021/04/04 06:38:31;;;;;;;10.90;8.10;;;;;;;;;;5075246;28;20542;-67
2021/04/04 06:41:00;;;;;;;11.00;8.37;;;;;;;;;;5086240;28;20204;-68
2021/04/04 06:43:36;;;;;;;10.20;8.80;;;;;;;;;;5073516;28;20182;-68
2021/04/04 06:46:14;;;;;;;13.37;8.63;;;;;;;;;;5078614;28;20210;-68
2021/04/04 06:48:45;;;;;;;10.83;8.37;;;;;;;;;;5077428;28;20191;-69
2021/04/04 06:51:14;;;;;;;11.33;8.13;;;;;;;;;;5084322;28;20183;-70
2021/04/04 06:53:40;;;;;;;13.07;8.00;;;;;;;;;;5084686;28;20196;-70
2021/04/04 06:56:08;;;;;;;10.70;8.10;;;;;;;;;;5075977;28;20277;-70
2021/04/04 06:58:43;;;;;;;15.97;8.53;;;;;;;;;;5075795;28;20202;-67
2021/04/04 07:01:09;;;;;;;13.27;7.40;;;;;;;;;;5080313;28;20177;-70
2021/04/04 07:03:41;;;;;;;9.90;7.40;;;;;;;;;;5088237;28;20210;-70
2021/04/04 07:06:33;;;;;;;10.00;8.03;;;;;;;;;;5080125;28;20199;-69
2021/04/04 07:09:02;;;;;;;10.03;7.37;;;;;;;;;;5068457;28;20194;-70
2021/04/04 07:11:42;;;;;;;11.77;7.37;;;;;;;;;;5081647;28;20184;-66
2021/04/04 07:14:27;;;;;;;14.27;8.50;;;;;;;;;;5079461;28;20186;-68
2021/04/04 07:16:55;;;;;;;12.40;9.85;;;;;;;;;;5092165;28;20221;-71
2021/04/04 07:19:40;;;;;;;14.00;8.35;;;;;;;;;;5083756;28;20221;-68
2021/04/04 07:22:12;;;;;;;10.65;7.45;;;;;;;;;;5079922;28;20257;-68
2021/04/04 07:24:53;;;;;;;12.88;10.32;;;;;;;;;;5079463;28;20210;-68
2021/04/04 07:27:28;;;;;;;10.20;8.32;;;;;;;;;;5073926;28;20186;-68
2021/04/04 07:30:02;;;;;;;13.18;9.18;;;;;;;;;;5077850;28;20550;-68
2021/04/04 07:32:35;;;;;;;10.38;7.30;;;;;;;;;;5068538;28;20208;-68
2021/04/04 07:35:08;;;;;;;10.32;7.60;;;;;;;;;;5076767;28;20234;-69
2021/04/04 07:37:54;;;;;;;7.47;6.47;;;;;;;;;;5078650;28;20207;-70
2021/04/04 07:40:28;;;;;;;10.00;7.28;;;;;;;;;;5080614;28;20182;-69
2021/04/04 07:43:01;;;;;;;11.57;6.75;;;;;;;;;;5077586;28;20191;-70
2021/04/04 07:45:39;;;;;;;10.65;6.85;;;;;;;;;;5077966;28;20210;-68
2021/04/04 07:48:24;;;;;;;8.77;5.80;;;;;;;;;;5072617;28;20193;-68
2021/04/04 07:51:08;;;;;;;10.60;6.07;;;;;;;;;;5077839;28;20281;-68
2021/04/04 07:53:43;;;;;;;9.07;5.63;;;;;;;;;;5084002;28;20739;-68
2021/04/04 07:56:29;;;;;;;11.13;5.85;;;;;;;;;;5077056;28;20578;-68
2021/04/04 07:59:21;;;;;;;7.60;5.93;;;;;;;;;;5079737;28;20210;-68
2021/04/04 08:01:53;;;;;;;9.05;6.35;;;;;;;;;;5062492;28;20187;-69
2021/04/04 08:04:25;;;;;;;10.02;6.00;;;;;;;;;;5060073;28;20188;-68
2021/04/04 08:06:55;;;;;;;7.30;5.82;;;;;;;;;;5058152;28;20222;-69
2021/04/04 08:09:26;;;;;;;10.82;6.70;;;;;;;;;;5057188;28;20771;-69
2021/04/04 08:12:02;;;;;;;8.63;5.85;;;;;;;;;;5065762;28;20187;-69
2021/04/04 08:14:34;;;;;;;11.02;6.50;;;;;;;;;;5060011;28;20603;-69
2021/04/04 08:17:00;;;;;;;7.78;5.22;;;;;;;;;;5068789;28;20744;-69
2021/04/04 08:19:26;;;;;;;10.32;5.80;;;;;;;;;;5064540;28;20621;-69
2021/04/04 08:21:53;;;;;;;9.40;5.25;;;;;;;;;;5066358;28;20191;-68
2021/04/04 08:24:22;;;;;;;8.45;5.47;;;;;;;;;;5061485;28;20772;-68
2021/04/04 08:26:53;;;;;;;10.13;6.13;;;;;;;;;;5059750;28;20212;-69
2021/04/04 08:29:23;;;;;;;10.15;5.88;;;;;;;;;;5053727;28;20184;-68
2021/04/04 08:31:59;;;;;;;9.05;5.38;;;;;;;;;;5064507;28;20712;-70
2021/04/04 08:34:27;;;;;;;10.80;6.35;;;;;;;;;;5060960;28;20216;-69
2021/04/04 08:37:01;;;;;;;12.65;6.30;;;;;;;;;;5064514;28;20345;-67
2021/04/04 08:39:30;;;;;;;9.30;5.85;;;;;;;;;;5082935;28;20208;-68
2021/04/04 08:41:57;;;;;;;13.00;6.40;;;;;;;;;;5078038;28;20640;-70
2021/04/04 08:44:29;;;;;;;15.02;8.05;;;;;;;;;;5078974;28;20325;-69
2021/04/04 08:47:04;;;;;;;8.70;6.60;;;;;;;;;;5081541;28;20185;-69
2021/04/04 08:49:30;;;;;;;9.48;6.22;;;;;;;;;;5080931;28;20561;-70
2021/04/04 08:52:05;;;;;;;7.85;5.47;;;;;;;;;;5083341;28;20605;-70
2021/04/04 08:54:32;;;;;;;11.50;5.60;;;;;;;;;;5079233;28;20205;-69
2021/04/04 08:56:58;;;;;;;9.27;5.55;;;;;;;;;;5076644;28;20214;-68
2021/04/04 08:59:28;;;;;;;7.38;4.85;;;;;;;;;;5068982;28;20193;-67
2021/04/04 09:02:02;;;;;;;8.98;5.57;;;;;;;;;;5069490;28;20167;-69
2021/04/04 09:04:29;;;;;;;6.35;5.05;;;;;;;;;;5074696;28;20206;-73
2021/04/04 09:07:01;;;;;;;6.47;4.90;;;;;;;;;;5079806;28;20179;-73
2021/04/04 09:09:28;;;;;;;7.63;5.30;;;;;;;;;;5081331;28;20193;-73
2021/04/04 09:11:58;;;;;;;9.57;5.00;;;;;;;;;;5081258;28;20178;-74
2021/04/04 09:14:24;;;;;;;8.18;5.05;;;;;;;;;;5069587;28;20206;-73
2021/04/04 09:16:53;;;;;;;9.65;4.93;;;;;;;;;;5068445;28;21142;-74
2021/04/04 09:19:27;;;;;;;9.48;5.22;;;;;;;;;;5076442;28;20657;-75
2021/04/04 09:21:53;;;;;;;6.97;4.53;;;;;;;;;;5072870;28;20205;-74
2021/04/04 09:24:20;;;;;;;7.72;4.80;;;;;;;;;;5072297;28;20554;-69
2021/04/04 09:26:46;;;;;;;8.95;4.40;;;;;;;;;;5076474;28;20262;-69
2021/04/04 09:29:12;;;;;;;7.93;4.03;;;;;;;;;;5081594;28;20657;-69
2021/04/04 09:31:39;;;;;;;7.53;4.30;;;;;;;;;;5081692;28;20312;-69
2021/04/04 09:34:10;;;;;;;7.28;4.28;;;;;;;;;;5078398;28;20170;-69
2021/04/04 09:36:40;;;;;;;8.40;3.67;;;;;;;;;;5077507;28;20232;-69
2021/04/04 09:39:07;;;;;;;3.92;3.30;;;;;;;;;;5077206;28;20179;-68
2021/04/04 09:41:33;;;;;;;5.85;2.90;;;;;;;;;;5072632;28;20186;-69
2021/04/04 09:43:59;;;;;;;3.53;2.85;;;;;;;;;;5076631;28;20795;-68
2021/04/04 09:46:25;;;;;;;3.90;3.22;;;;;;;;;;5075613;28;20287;-69
2021/04/04 09:48:51;;;;;;;3.90;2.85;;;;;;;;;;5078006;28;20189;-68
2021/04/04 09:51:17;;;;;;;3.05;2.72;;;;;;;;;;5070965;28;20179;-65
2021/04/04 09:53:44;;;;;;;4.43;2.33;;;;;;;;;;5085930;28;20193;-65
2021/04/04 09:56:14;;;;;;;4.88;2.10;;;;;;;;;;5072510;28;20195;-68
2021/04/04 09:58:41;;;;;;;3.72;2.08;;;;;;;;;;5080627;28;20235;-67
2021/04/04 10:01:15;;;;;;;2.83;1.80;;;;;;;;;;5078840;28;20723;-67
2021/04/04 10:03:41;;;;;;;4.93;2.33;;;;;;;;;;5077657;28;20190;-68
2021/04/04 10:06:13;;;;;;;4.50;2.60;;;;;;;;;;5076432;28;20201;-66
2021/04/04 10:08:52;;;;;;;12.82;2.97;;;;;;;;;;5075516;28;20189;-66
2021/04/04 10:11:19;;;;;;;5.07;2.30;;;;;;;;;;5072349;28;20616;-66
2021/04/04 10:13:45;;;;;;;2.33;1.83;;;;;;;;;;5079451;28;20883;-65
2021/04/04 10:16:17;;;;;;;3.65;2.40;;;;;;;;;;5078989;28;20195;-66
2021/04/04 10:18:59;;;;;;;6.00;2.67;;;;;;;;;;5078690;28;20229;-65
2021/04/04 10:21:25;;;;;;;4.03;2.30;;;;;;;;;;5084647;28;20204;-67
2021/04/04 10:23:51;;;;;;;3.58;2.83;;;;;;;;;;5074297;28;20241;-67
2021/04/04 10:26:20;;;;;;;3.70;2.55;;;;;;;;;;5073486;28;20440;-67
2021/04/04 10:28:52;;;;;;;5.35;2.80;;;;;;;;;;5077266;28;20186;-67
2021/04/04 10:31:19;;;;;;;5.97;3.03;;;;;;;;;;5077954;28;20657;-67
2021/04/04 10:33:45;;;;;;;6.32;2.67;;;;;;;;;;5073539;28;20190;-66
2021/04/04 10:36:12;;;;;;;3.65;2.45;;;;;;;;;;5082255;28;20251;-66
2021/04/04 10:38:38;;;;;;;4.07;2.92;;;;;;;;;;5076821;28;20653;-65
2021/04/04 10:41:05;;;;;;;4.13;2.60;;;;;;;;;;5076306;28;20185;-66
2021/04/04 10:43:37;;;;;;;5.45;3.00;;;;;;;;;;5072251;28;20171;-67
2021/04/04 10:46:04;;;;;;;5.72;3.10;;;;;;;;;;5075429;28;20317;-67
2021/04/04 10:48:31;;;;;;;5.13;2.47;;;;;;;;;;5085201;28;20194;-66
2021/04/04 10:50:57;;;;;;;5.85;2.78;;;;;;;;;;5082407;28;20182;-66
2021/04/04 10:53:23;;;;;;;4.50;2.80;;;;;;;;;;5078950;28;20182;-66
2021/04/04 10:55:50;;;;;;;3.55;2.97;;;;;;;;;;5077812;28;20294;-66
2021/04/04 10:58:21;;;;;;;4.30;3.00;;;;;;;;;;5081043;28;20211;-66
2021/04/04 11:00:48;;;;;;;4.93;2.65;;;;;;;;;;5077713;28;21715;-66
2021/04/04 11:03:14;;;;;;;3.25;2.70;;;;;;;;;;5080791;28;20170;-66
2021/04/04 11:05:40;;;;;;;3.15;2.25;;;;;;;;;;5083097;28;20707;-66
2021/04/04 11:08:06;;;;;;;4.10;2.70;;;;;;;;;;5085234;28;20182;-66
2021/04/04 11:10:32;;;;;;;5.20;2.83;;;;;;;;;;5076121;28;20276;-67
2021/04/04 11:13:00;;;;;;;5.47;3.10;;;;;;;;;;5082685;28;20207;-66
2021/04/04 11:15:29;;;;;;;6.10;2.72;;;;;;;;;;5080160;28;20230;-66
2021/04/04 11:17:55;;;;;;;3.35;2.47;;;;;;;;;;5075616;28;20213;-66
2021/04/04 11:20:22;;;;;;;4.47;2.92;;;;;;;;;;5090531;28;20305;-66
2021/04/04 11:22:48;;;;;;;5.28;2.90;;;;;;;;;;5078638;28;20174;-66
2021/04/04 11:25:15;;;;;;;3.88;2.70;;;;;;;;;;5081956;28;20932;-65
2021/04/04 11:27:43;;;;;;;4.47;2.92;;;;;;;;;;5080829;28;20183;-66
2021/04/04 11:30:14;;;;;;;5.55;2.92;;;;;;;;;;5081195;28;20261;-67
2021/04/04 11:32:41;;;;;;;8.77;3.28;;;;;;;;;;5077091;28;20186;-66
2021/04/04 11:35:08;;;;;;;4.38;2.88;;;;;;;;;;5080100;28;20194;-66
2021/04/04 11:37:36;;;;;;;4.82;2.83;;;;;;;;;;5078864;28;20191;-66
2021/04/04 11:40:21;;;;;;;3.83;2.97;;;;;;;;;;5076842;28;20182;-67
2021/04/04 11:42:48;;;;;;;5.15;3.08;;;;;;;;;;5081273;28;20206;-67
2021/04/04 11:45:32;;;;;;;6.35;3.17;;;;;;;;;;5084519;28;20213;-67
2021/04/04 11:48:18;;;;;;;5.03;3.63;;;;;;;;;;5084219;28;20232;-67
2021/04/04 11:50:44;;;;;;;4.65;2.78;;;;;;;;;;5083427;28;20189;-67
2021/04/04 11:53:30;;;;;;;5.18;3.15;;;;;;;;;;5081810;28;20179;-66
2021/04/04 11:55:56;;;;;;;5.78;3.13;;;;;;;;;;5097005;28;20398;-66
2021/04/04 11:58:22;;;;;;;5.00;2.90;;;;;;;;;;5083448;28;20696;-68
2021/04/04 12:00:48;;;;;;;3.75;2.65;;;;;;;;;;5082240;28;20209;-67
2021/04/04 12:03:14;;;;;;;4.75;3.08;;;;;;;;;;5078037;28;20171;-67
2021/04/04 12:05:40;;;;;;;4.05;2.60;;;;;;;;;;5074896;28;20195;-68
2021/04/04 12:08:06;;;;;;;4.95;3.03;;;;;;;;;;5082797;28;20212;-65
2021/04/04 12:10:37;;;;;;;5.57;2.83;;;;;;;;;;5077925;28;20175;-66
2021/04/04 12:13:03;;;;;;;5.00;3.03;;;;;;;;;;5077960;28;20171;-66
2021/04/04 12:15:30;;;;;;;5.38;3.05;;;;;;;;;;5083997;28;20218;-66
2021/04/04 12:17:56;;;;;;;4.53;2.78;;;;;;;;;;5079097;28;20206;-65
2021/04/04 12:20:24;;;;;;;4.63;3.17;;;;;;;;;;5075845;28;20189;-65
2021/04/04 12:22:50;;;;;;;7.63;2.90;;;;;;;;;;5076736;28;20179;-65
2021/04/04 12:25:17;;;;;;;5.15;3.75;;;;;;;;;;5073739;28;20340;-65
2021/04/04 12:27:44;;;;;;;5.00;2.85;;;;;;;;;;5077528;28;20186;-65
2021/04/04 12:30:21;;;;;;;4.45;2.92;;;;;;;;;;5077153;28;20269;-67
2021/04/04 12:32:47;;;;;;;4.90;2.90;;;;;;;;;;5078770;28;20232;-66
2021/04/04 12:35:21;;;;;;;4.85;3.08;;;;;;;;;;5083660;28;20211;-67
2021/04/04 12:37:47;;;;;;;6.10;3.13;;;;;;;;;;5075941;28;20213;-68
2021/04/04 12:40:14;;;;;;;6.80;2.95;;;;;;;;;;5071320;28;20175;-67
2021/04/04 12:42:40;;;;;;;3.78;2.85;;;;;;;;;;5087190;28;20934;-67
2021/04/04 12:45:10;;;;;;;6.85;3.13;;;;;;;;;;5072852;28;20226;-67
2021/04/04 12:47:38;;;;;;;3.55;3.00;;;;;;;;;;5081070;28;20191;-67
2021/04/04 12:50:11;;;;;;;6.20;3.25;;;;;;;;;;5078931;28;20218;-66
2021/04/04 12:52:39;;;;;;;6.53;3.20;;;;;;;;;;5081468;28;20175;-66
2021/04/04 12:55:11;;;;;;;4.18;2.85;;;;;;;;;;5079659;28;20205;-66
2021/04/04 12:57:37;;;;;;;5.18;3.30;;;;;;;;;;5084982;28;20306;-66
2021/04/04 13:00:13;;;;;;;5.38;3.00;;;;;;;;;;5082790;28;20649;-67
2021/04/04 13:02:39;;;;;;;7.50;3.42;;;;;;;;;;5082356;28;20265;-66
2021/04/04 13:05:06;;;;;;;5.18;2.83;;;;;;;;;;5082391;28;20203;-67
2021/04/04 13:07:32;;;;;;;4.38;3.17;;;;;;;;;;5079174;28;20182;-66
2021/04/04 13:09:58;;;;;;;3.65;2.92;;;;;;;;;;5080809;28;20180;-66
2021/04/04 13:12:24;;;;;;;4.13;2.75;;;;;;;;;;5079352;28;20183;-67
2021/04/04 13:14:50;;;;;;;4.35;2.83;;;;;;;;;;5077029;28;20206;-67
2021/04/04 13:17:16;;;;;;;4.78;2.90;;;;;;;;;;5073943;28;20711;-66
2021/04/04 13:19:42;;;;;;;5.20;2.80;;;;;;;;;;5081362;28;20179;-66
2021/04/04 13:22:11;;;;;;;3.08;2.28;;;;;;;;;;5082176;28;20195;-66
2021/04/04 13:24:37;;;;;;;4.25;2.63;;;;;;;;;;5082299;28;20295;-66
2021/04/04 13:27:03;;;;;;;4.95;2.92;;;;;;;;;;5081350;28;20600;-66
2021/04/04 13:29:39;;;;;;;3.60;2.65;;;;;;;;;;5074882;28;20204;-66
2021/04/04 13:32:05;;;;;;;4.03;3.00;;;;;;;;;;5080563;28;20179;-66
2021/04/04 13:34:43;;;;;;;5.80;3.03;;;;;;;;;;5077238;28;20643;-66
2021/04/04 13:37:09;;;;;;;4.72;3.00;;;;;;;;;;5086100;28;20194;-67
2021/04/04 13:39:36;;;;;;;5.72;2.95;;;;;;;;;;5083251;28;20257;-67
2021/04/04 13:42:03;;;;;;;4.80;2.80;;;;;;;;;;5079163;28;20183;-66
2021/04/04 13:44:29;;;;;;;3.35;2.70;;;;;;;;;;5081253;28;20181;-66
2021/04/04 13:46:57;;;;;;;5.45;3.25;;;;;;;;;;5079794;28;20186;-67
2021/04/04 13:49:32;;;;;;;5.57;2.90;;;;;;;;;;5081797;28;20183;-67
2021/04/04 13:52:09;;;;;;;3.92;3.15;;;;;;;;;;5073877;28;20185;-66
2021/04/04 13:54:35;;;;;;;5.00;3.03;;;;;;;;;;5079431;28;20260;-66
2021/04/04 13:57:01;;;;;;;4.10;3.40;;;;;;;;;;5079262;28;20205;-66
2021/04/04 13:59:28;;;;;;;5.13;2.90;;;;;;;;;;5075664;28;20179;-66
2021/04/04 14:01:56;;;;;;;7.45;3.50;;;;;;;;;;5075072;28;20581;-66
2021/04/04 14:04:42;;;;;;;5.30;3.05;;;;;;;;;;5077729;28;20183;-65
2021/04/04 14:07:14;;;;;;;4.57;3.05;;;;;;;;;;5080041;28;20261;-65
2021/04/04 14:09:41;;;;;;;4.50;3.15;;;;;;;;;;5072949;28;20183;-66
2021/04/04 14:12:08;;;;;;;4.13;3.08;;;;;;;;;;5079896;28;20186;-67
2021/04/04 14:14:35;;;;;;;6.22;2.72;;;;;;;;;;5074331;28;20308;-66
2021/04/04 14:17:02;;;;;;;4.25;3.25;;;;;;;;;;5072073;28;20234;-67
2021/04/04 14:19:28;;;;;;;5.60;3.30;;;;;;;;;;5074960;28;20266;-66
2021/04/04 14:21:55;;;;;;;4.50;3.17;;;;;;;;;;5079195;28;20700;-66
2021/04/04 14:24:21;;;;;;;3.85;2.80;;;;;;;;;;5085645;28;20193;-68
2021/04/04 14:26:47;;;;;;;4.10;2.97;;;;;;;;;;5081924;28;20187;-67
2021/04/04 14:29:14;;;;;;;5.78;3.28;;;;;;;;;;5081267;28;20708;-67
2021/04/04 14:31:40;;;;;;;5.22;3.22;;;;;;;;;;5082259;28;20190;-68
2021/04/04 14:34:07;;;;;;;6.60;3.28;;;;;;;;;;5085190;28;20182;-66
2021/04/04 14:36:33;;;;;;;5.80;3.40;;;;;;;;;;5076818;28;20206;-66
2021/04/04 14:38:59;;;;;;;7.45;3.80;;;;;;;;;;5083388;28;20231;-66
2021/04/04 14:41:26;;;;;;;6.25;3.45;;;;;;;;;;5078894;28;20186;-66
2021/04/04 14:44:02;;;;;;;3.72;3.15;;;;;;;;;;5077914;28;20661;-66
2021/04/04 14:46:30;;;;;;;4.00;3.15;;;;;;;;;;5084158;28;20213;-66
2021/04/04 14:48:56;;;;;;;3.78;3.20;;;;;;;;;;5081809;28;20198;-67
2021/04/04 14:51:22;;;;;;;4.55;3.00;;;;;;;;;;5077787;28;20189;-65
2021/04/04 14:53:48;;;;;;;5.78;3.08;;;;;;;;;;5078914;28;20179;-66